createdAt,value
2023-02-04T00:00:07.830Z,2.36
2023-02-04T00:02:34.895Z,2.13
2023-02-04T00:05:02.111Z,2.34
2023-02-04T00:07:29.153Z,2.08
2023-02-04T00:09:56.099Z,2.17
2023-02-04T00:12:24.646Z,2.11
2023-02-04T00:14:51.530Z,2.23
2023-02-04T00:17:18.407Z,2.28
2023-02-04T00:19:45.320Z,2.16
2023-02-04T00:22:12.285Z,2.16
2023-02-04T00:24:39.178Z,1.96
2023-02-04T00:27:07.632Z,2.00
2023-02-04T00:29:34.598Z,2.01
2023-02-04T00:32:01.812Z,2.00
2023-02-04T00:34:28.921Z,2.01
2023-02-04T00:36:55.894Z,2.20
2023-02-04T00:39:22.999Z,2.09
2023-02-04T00:41:49.951Z,2.19
2023-02-04T00:44:17.011Z,2.14
2023-02-04T00:46:44.016Z,2.10
2023-02-04T00:49:11.297Z,1.96
2023-02-04T00:51:39.859Z,2.17
2023-02-04T00:54:07.907Z,2.29
2023-02-04T00:56:35.014Z,2.43
2023-02-04T00:59:02.833Z,2.77
2023-02-04T01:01:29.785Z,2.72
2023-02-04T01:03:56.773Z,2.92
2023-02-04T01:06:24.131Z,2.87
2023-02-04T01:08:51.543Z,2.71
2023-02-04T01:11:19.154Z,2.78
2023-02-04T01:13:46.346Z,2.81
2023-02-04T01:16:13.673Z,3.17
2023-02-04T01:18:40.833Z,3.20
2023-02-04T01:21:07.878Z,3.18
2023-02-04T01:23:35.912Z,3.23
2023-02-04T01:26:03.011Z,3.17
2023-02-04T01:28:31.388Z,3.43
2023-02-04T01:30:58.886Z,3.41
2023-02-04T01:33:26.052Z,3.11
2023-02-04T01:35:53.058Z,3.19
2023-02-04T01:38:19.953Z,3.40
2023-02-04T01:40:47.799Z,3.39
2023-02-04T01:43:14.785Z,3.61
2023-02-04T01:45:41.910Z,3.62
2023-02-04T01:48:09.597Z,3.32
2023-02-04T01:50:37.424Z,3.34
2023-02-04T01:53:04.647Z,3.24
2023-02-04T01:55:34.094Z,3.15
2023-02-04T01:58:01.977Z,2.88
2023-02-04T02:00:33.503Z,3.30
2023-02-04T02:03:00.683Z,3.66
2023-02-04T02:05:40.578Z,3.28
2023-02-04T02:08:08.578Z,2.82
2023-02-04T02:10:40.067Z,3.01
2023-02-04T02:13:12.498Z,3.54
2023-02-04T02:15:40.567Z,3.56
2023-02-04T02:18:08.759Z,3.77
2023-02-04T02:20:36.836Z,3.85
2023-02-04T02:23:27.179Z,3.90
2023-02-04T02:25:54.147Z,4.10
2023-02-04T02:28:23.355Z,4.19
2023-02-04T02:30:51.197Z,4.22
2023-02-04T02:33:21.048Z,4.38
2023-02-04T02:35:48.878Z,4.15
2023-02-04T02:38:17.065Z,4.33
2023-02-04T02:40:44.490Z,4.16
2023-02-04T02:43:17.819Z,4.24
2023-02-04T02:45:45.633Z,4.17
2023-02-04T02:48:13.099Z,4.29
2023-02-04T02:50:41.290Z,4.60
2023-02-04T02:53:16.675Z,4.59
2023-02-04T02:55:45.803Z,4.49
2023-02-04T02:58:34.642Z,4.61
2023-02-04T03:01:06.464Z,3.53
2023-02-04T03:04:02.765Z,2.79
2023-02-04T03:06:29.963Z,2.54
2023-02-04T03:08:57.840Z,2.59
2023-02-04T03:11:26.417Z,2.60
2023-02-04T03:13:54.257Z,3.30
2023-02-04T03:16:21.205Z,3.56
2023-02-04T03:18:49.552Z,3.86
2023-02-04T03:21:16.798Z,3.96
2023-02-04T03:23:43.769Z,3.57
2023-02-04T03:26:10.831Z,3.52
2023-02-04T03:28:42.481Z,3.85
2023-02-04T03:31:10.405Z,3.76
2023-02-04T03:33:37.458Z,3.90
2023-02-04T03:36:04.584Z,4.08
2023-02-04T03:38:31.505Z,4.32
2023-02-04T03:40:58.434Z,4.48
2023-02-04T03:43:25.374Z,4.25
2023-02-04T03:45:52.445Z,4.01
2023-02-04T03:48:19.495Z,4.20
2023-02-04T03:50:46.430Z,4.28
2023-02-04T03:53:13.608Z,4.49
2023-02-04T03:55:40.535Z,4.58
2023-02-04T03:58:07.613Z,4.60
2023-02-04T04:00:34.571Z,4.79
2023-02-04T04:03:01.603Z,4.92
2023-02-04T04:05:28.831Z,4.65
2023-02-04T04:07:56.085Z,3.88
2023-02-04T04:10:23.315Z,3.44
2023-02-04T04:12:50.359Z,3.57
2023-02-04T04:15:17.407Z,3.64
2023-02-04T04:17:45.032Z,3.46
2023-02-04T04:20:12.982Z,3.47
2023-02-04T04:22:40.268Z,3.67
2023-02-04T04:25:08.005Z,3.68
2023-02-04T04:27:34.920Z,3.73
2023-02-04T04:30:02.213Z,3.83
2023-02-04T04:32:29.168Z,4.06
2023-02-04T04:34:56.419Z,4.23
2023-02-04T04:37:23.287Z,4.06
2023-02-04T04:39:50.272Z,3.91
2023-02-04T04:42:17.177Z,4.10
2023-02-04T04:44:44.601Z,4.11
2023-02-04T04:47:11.713Z,3.97
2023-02-04T04:49:38.823Z,3.89
2023-02-04T04:52:05.789Z,3.86
2023-02-04T04:54:32.723Z,3.98
2023-02-04T04:56:59.620Z,3.94
2023-02-04T04:59:26.449Z,3.87
2023-02-04T05:01:53.377Z,3.72
2023-02-04T05:04:20.266Z,3.76
2023-02-04T05:06:47.192Z,3.86
2023-02-04T05:09:15.301Z,3.82
2023-02-04T05:11:42.181Z,3.73
2023-02-04T05:14:09.127Z,3.90
2023-02-04T05:16:36.079Z,4.01
2023-02-04T05:19:02.995Z,4.22
2023-02-04T05:21:29.831Z,4.30
2023-02-04T05:23:56.699Z,4.13
2023-02-04T05:26:30.261Z,4.24
2023-02-04T05:28:57.893Z,4.12
2023-02-04T05:31:24.904Z,4.07
2023-02-04T05:33:51.966Z,4.30
2023-02-04T05:36:18.851Z,4.13
2023-02-04T05:38:45.743Z,4.22
2023-02-04T05:41:13.038Z,4.28
2023-02-04T05:43:40.218Z,4.25
2023-02-04T05:46:07.177Z,4.34
2023-02-04T05:48:34.250Z,4.39
2023-02-04T05:51:01.095Z,4.59
2023-02-04T05:53:28.089Z,4.62
2023-02-04T05:55:54.986Z,4.53
2023-02-04T05:58:21.953Z,4.50
2023-02-04T06:00:48.790Z,4.65
2023-02-04T06:03:15.818Z,4.49
2023-02-04T06:05:44.361Z,4.40
2023-02-04T06:08:11.351Z,4.41
2023-02-04T06:10:38.224Z,3.81
2023-02-04T06:13:05.140Z,3.31
2023-02-04T06:15:31.974Z,3.22
2023-02-04T06:17:59.066Z,3.24
2023-02-04T06:20:26.165Z,2.91
2023-02-04T06:22:54.584Z,2.99
2023-02-04T06:25:22.713Z,3.30
2023-02-04T06:27:49.828Z,3.45
2023-02-04T06:30:17.475Z,3.60
2023-02-04T06:32:45.025Z,3.76
2023-02-04T06:35:13.293Z,3.92
2023-02-04T06:37:40.229Z,3.75
2023-02-04T06:40:08.789Z,3.76
2023-02-04T06:42:35.711Z,3.92
2023-02-04T06:45:03.035Z,4.04
2023-02-04T06:47:29.999Z,4.04
2023-02-04T06:49:56.890Z,3.88
2023-02-04T06:52:23.757Z,3.82
2023-02-04T06:54:50.662Z,3.96
2023-02-04T06:57:17.692Z,4.07
2023-02-04T06:59:44.629Z,4.03
2023-02-04T07:02:12.592Z,4.22
2023-02-04T07:04:39.489Z,4.23
2023-02-04T07:07:06.458Z,4.28
2023-02-04T07:09:33.311Z,4.45
2023-02-04T07:12:00.275Z,4.42
2023-02-04T07:14:27.227Z,4.62
2023-02-04T07:16:54.151Z,4.67
2023-02-04T07:19:21.363Z,4.28
2023-02-04T07:21:48.308Z,4.27
2023-02-04T07:24:15.205Z,4.31
2023-02-04T07:26:42.106Z,4.34
2023-02-04T07:29:17.316Z,4.38
2023-02-04T07:31:48.176Z,4.34
2023-02-04T07:34:15.851Z,4.34
2023-02-04T07:36:42.858Z,4.52
2023-02-04T07:39:10.210Z,3.98
2023-02-04T07:41:37.402Z,4.23
2023-02-04T07:44:04.765Z,4.25
2023-02-04T07:46:31.862Z,3.68
2023-02-04T07:48:58.840Z,3.58
2023-02-04T07:51:27.760Z,3.28
2023-02-04T07:53:55.929Z,3.19
2023-02-04T07:56:23.221Z,3.28
2023-02-04T07:58:50.229Z,3.70
2023-02-04T08:01:17.187Z,3.97
2023-02-04T08:03:44.455Z,3.96
2023-02-04T08:06:11.523Z,4.00
2023-02-04T08:08:38.431Z,4.08
2023-02-04T08:11:05.646Z,3.86
2023-02-04T08:13:32.677Z,3.49
2023-02-04T08:15:59.648Z,3.70
2023-02-04T08:18:26.571Z,3.93
2023-02-04T08:20:53.548Z,4.05
2023-02-04T08:23:20.592Z,3.79
2023-02-04T08:25:47.636Z,3.53
2023-02-04T08:28:14.645Z,3.36
2023-02-04T08:30:41.651Z,3.79
2023-02-04T08:33:08.564Z,3.97
2023-02-04T08:35:35.470Z,3.65
2023-02-04T08:38:02.518Z,3.92
2023-02-04T08:40:29.673Z,3.99
2023-02-04T08:42:56.632Z,3.94
2023-02-04T08:45:23.507Z,3.86
2023-02-04T08:47:50.384Z,3.77
2023-02-04T08:50:17.486Z,4.01
2023-02-04T08:52:44.681Z,4.06
2023-02-04T08:55:11.579Z,4.27
2023-02-04T08:57:38.506Z,4.05
2023-02-04T09:00:05.895Z,3.77
2023-02-04T09:02:32.767Z,3.99
2023-02-04T09:04:59.620Z,3.93
2023-02-04T09:07:26.478Z,4.32
2023-02-04T09:09:53.506Z,4.62
2023-02-04T09:12:20.481Z,4.64
2023-02-04T09:14:47.485Z,4.22
2023-02-04T09:17:14.407Z,4.69
2023-02-04T09:19:41.244Z,5.51
2023-02-04T09:22:08.168Z,4.84
2023-02-04T09:24:35.072Z,5.53
2023-02-04T09:27:01.933Z,6.02
2023-02-04T09:29:28.780Z,6.80
2023-02-04T09:31:55.817Z,6.30
2023-02-04T09:34:22.818Z,5.91
2023-02-04T09:36:50.243Z,5.68
2023-02-04T09:39:17.216Z,4.86
2023-02-04T09:41:44.261Z,6.04
2023-02-04T09:44:16.635Z,5.93
2023-02-04T09:46:50.643Z,5.96
2023-02-04T09:49:17.774Z,6.11
2023-02-04T09:51:47.009Z,7.77
2023-02-04T09:54:17.578Z,7.97
2023-02-04T09:56:45.001Z,7.87
2023-02-04T09:59:20.749Z,8.12
2023-02-04T10:02:26.842Z,10.69
2023-02-04T10:04:57.885Z,10.98
2023-02-04T10:07:26.855Z,12.58
2023-02-04T10:09:54.529Z,12.68
2023-02-04T10:12:21.801Z,12.36
2023-02-04T10:14:49.872Z,12.79
2023-02-04T10:17:21.445Z,11.77
2023-02-04T10:19:48.871Z,10.25
2023-02-04T10:22:21.652Z,9.74
2023-02-04T10:24:48.606Z,8.34
2023-02-04T10:27:16.437Z,9.00
2023-02-04T10:29:55.845Z,8.11
2023-02-04T10:32:31.667Z,7.68
2023-02-04T10:35:02.898Z,8.90
2023-02-04T10:37:30.833Z,8.29
2023-02-04T10:39:58.050Z,8.18
2023-02-04T10:42:30.380Z,8.62
2023-02-04T10:44:58.119Z,8.96
2023-02-04T10:47:29.081Z,9.08
2023-02-04T10:50:17.962Z,8.86
2023-02-04T10:52:49.709Z,8.96
2023-02-04T10:55:24.360Z,8.74
2023-02-04T10:57:55.331Z,8.62
2023-02-04T11:00:25.010Z,8.50
2023-02-04T11:03:30.931Z,8.50
2023-02-04T11:06:00.665Z,8.39
2023-02-04T11:08:34.424Z,8.54
2023-02-04T11:11:08.440Z,8.43
2023-02-04T11:13:50.336Z,8.16
2023-02-04T11:16:17.695Z,8.11
2023-02-04T11:19:01.363Z,8.30
2023-02-04T11:21:33.960Z,8.28
2023-02-04T11:24:24.432Z,7.91
2023-02-04T11:27:05.001Z,7.16
2023-02-04T11:29:38.937Z,7.42
2023-02-04T11:32:36.235Z,7.03
2023-02-04T11:35:08.017Z,6.86
2023-02-04T11:37:40.361Z,6.26
2023-02-04T11:40:25.688Z,6.49
2023-02-04T11:43:12.673Z,7.08
2023-02-04T11:45:42.223Z,7.10
2023-02-04T11:48:15.807Z,6.91
2023-02-04T11:50:42.982Z,7.09
2023-02-04T11:53:12.001Z,6.74
2023-02-04T11:55:47.285Z,7.24
2023-02-04T11:58:17.133Z,7.44
2023-02-04T12:00:44.708Z,7.61
2023-02-04T12:03:26.968Z,7.87
2023-02-04T12:05:57.493Z,8.18
2023-02-04T12:08:24.425Z,7.88
2023-02-04T12:11:11.418Z,6.96
2023-02-04T12:13:50.085Z,6.73
2023-02-04T12:16:17.047Z,6.64
2023-02-04T12:18:44.022Z,5.95
2023-02-04T12:21:11.030Z,5.93
2023-02-04T12:23:37.891Z,6.15
2023-02-04T12:26:04.994Z,6.07
2023-02-04T12:28:31.965Z,6.06
2023-02-04T12:30:58.925Z,5.89
2023-02-04T12:33:26.014Z,6.13
2023-02-04T12:35:53.324Z,6.31
2023-02-04T12:38:20.779Z,5.71
2023-02-04T12:40:47.730Z,5.08
2023-02-04T12:43:14.824Z,4.99
2023-02-04T12:45:45.814Z,4.91
2023-02-04T12:48:14.120Z,4.97
2023-02-04T12:50:41.608Z,4.87
2023-02-04T12:53:09.025Z,5.06
2023-02-04T12:55:36.435Z,5.33
2023-02-04T12:58:03.825Z,5.27
2023-02-04T13:00:31.210Z,5.24
2023-02-04T13:03:00.954Z,5.19
2023-02-04T13:05:28.253Z,5.10
2023-02-04T13:07:55.246Z,5.04
2023-02-04T13:10:24.057Z,5.03
2023-02-04T13:12:51.688Z,5.11
2023-02-04T13:15:18.837Z,4.90
2023-02-04T13:17:46.073Z,5.02
2023-02-04T13:20:13.301Z,5.27
2023-02-04T13:22:40.524Z,5.29
2023-02-04T13:25:07.677Z,5.06
2023-02-04T13:27:34.585Z,5.15
2023-02-04T13:30:01.741Z,5.08
2023-02-04T13:32:28.635Z,5.20
2023-02-04T13:34:55.520Z,5.12
2023-02-04T13:37:22.536Z,5.10
2023-02-04T13:39:49.426Z,5.09
2023-02-04T13:42:16.476Z,5.34
2023-02-04T13:44:43.502Z,5.18
2023-02-04T13:47:10.342Z,5.14
2023-02-04T13:49:37.240Z,5.05
2023-02-04T13:52:04.267Z,5.09
2023-02-04T13:54:31.218Z,5.00
2023-02-04T13:56:58.108Z,5.03
2023-02-04T13:59:25.068Z,5.05
2023-02-04T14:01:51.943Z,5.01
2023-02-04T14:04:18.836Z,4.78
2023-02-04T14:06:45.756Z,4.93
2023-02-04T14:09:13.209Z,5.30
2023-02-04T14:11:40.861Z,5.61
2023-02-04T14:14:07.989Z,5.32
2023-02-04T14:16:37.545Z,5.26
2023-02-04T14:19:05.685Z,5.59
2023-02-04T14:21:33.179Z,5.86
2023-02-04T14:24:00.672Z,5.44
2023-02-04T14:26:27.713Z,5.36
2023-02-04T14:28:54.610Z,5.39
2023-02-04T14:31:21.738Z,5.36
2023-02-04T14:33:50.359Z,5.31
2023-02-04T14:36:17.509Z,4.89
2023-02-04T14:38:44.498Z,5.22
2023-02-04T14:41:16.411Z,5.24
2023-02-04T14:43:43.526Z,4.61
2023-02-04T14:46:10.495Z,5.14
2023-02-04T14:48:37.424Z,5.30
2023-02-04T14:51:04.837Z,5.39
2023-02-04T14:53:31.802Z,5.02
2023-02-04T14:55:58.809Z,5.24
2023-02-04T14:58:27.817Z,5.35
2023-02-04T15:00:55.311Z,5.10
2023-02-04T15:03:22.430Z,4.62
2023-02-04T15:05:49.354Z,4.77
2023-02-04T15:08:16.200Z,4.77
2023-02-04T15:10:43.261Z,4.58
2023-02-04T15:13:10.298Z,4.72
2023-02-04T15:15:37.475Z,4.66
2023-02-04T15:18:04.433Z,4.39
2023-02-04T15:20:31.734Z,4.58
2023-02-04T15:23:00.659Z,4.48
2023-02-04T15:25:46.087Z,4.43
2023-02-04T15:28:50.163Z,4.58
2023-02-04T15:31:17.292Z,4.54
2023-02-04T15:33:44.306Z,4.62
2023-02-04T15:36:29.863Z,4.55
2023-02-04T15:39:15.180Z,4.17
2023-02-04T15:41:42.038Z,4.26
2023-02-04T15:44:27.364Z,4.12
2023-02-04T15:46:54.933Z,3.71
2023-02-04T15:49:21.846Z,3.66
2023-02-04T15:51:48.789Z,3.48
2023-02-04T15:54:15.820Z,3.64
2023-02-04T15:56:44.414Z,3.72
2023-02-04T15:59:11.636Z,3.89
2023-02-04T16:01:38.684Z,4.05
2023-02-04T16:04:05.626Z,3.92
2023-02-04T16:06:32.686Z,3.67
2023-02-04T16:08:59.637Z,3.98
2023-02-04T16:11:26.727Z,3.97
2023-02-04T16:13:53.673Z,3.63
2023-02-04T16:16:20.878Z,3.57
2023-02-04T16:18:47.914Z,3.74
2023-02-04T16:21:14.813Z,3.50
2023-02-04T16:23:43.499Z,3.25
2023-02-04T16:26:10.591Z,3.30
2023-02-04T16:28:37.489Z,3.35
2023-02-04T16:31:05.239Z,3.58
2023-02-04T16:33:32.521Z,3.45
2023-02-04T16:36:03.165Z,3.04
2023-02-04T16:38:31.311Z,2.99
2023-02-04T16:40:58.672Z,3.00
2023-02-04T16:43:25.670Z,3.25
2023-02-04T16:45:52.590Z,3.19
2023-02-04T16:48:19.570Z,3.10
2023-02-04T16:50:46.655Z,2.88
2023-02-04T16:53:16.288Z,2.98
2023-02-04T16:55:44.608Z,3.04
2023-02-04T16:58:13.045Z,2.98
2023-02-04T17:00:42.267Z,3.13
2023-02-04T17:03:10.264Z,3.07
2023-02-04T17:05:38.193Z,3.09
2023-02-04T17:08:06.008Z,3.14
2023-02-04T17:10:51.734Z,2.89
2023-02-04T17:13:18.867Z,3.14
2023-02-04T17:15:45.841Z,3.04
2023-02-04T17:18:12.747Z,2.75
2023-02-04T17:20:39.763Z,2.88
2023-02-04T17:23:06.738Z,3.21
2023-02-04T17:25:33.929Z,3.18
2023-02-04T17:28:01.214Z,3.15
2023-02-04T17:30:28.256Z,2.99
2023-02-04T17:32:55.168Z,2.94
2023-02-04T17:35:22.080Z,2.86
2023-02-04T17:37:49.053Z,3.01
2023-02-04T17:40:16.021Z,3.07
2023-02-04T17:42:43.113Z,2.94
2023-02-04T17:45:11.288Z,2.92
2023-02-04T17:47:41.534Z,2.97
2023-02-04T17:50:10.302Z,2.75
2023-02-04T17:52:38.107Z,2.79
2023-02-04T17:55:29.689Z,2.95
2023-02-04T17:57:59.794Z,2.87
2023-02-04T18:00:29.183Z,2.58
2023-02-04T18:02:56.629Z,2.62
2023-02-04T18:05:26.748Z,2.64
2023-02-04T18:08:00.486Z,2.37
2023-02-04T18:10:31.960Z,2.33
2023-02-04T18:13:00.476Z,2.59
2023-02-04T18:15:30.425Z,2.39
2023-02-04T18:18:02.272Z,2.37
2023-02-04T18:20:30.230Z,2.45
2023-02-04T18:23:02.800Z,2.28
2023-02-04T18:25:30.309Z,2.48
2023-02-04T18:28:02.984Z,2.54
2023-02-04T18:30:29.981Z,2.33
2023-02-04T18:32:57.034Z,2.33
2023-02-04T18:35:44.182Z,2.78
2023-02-04T18:38:32.561Z,2.36
2023-02-04T18:41:20.607Z,2.53
2023-02-04T18:43:52.970Z,2.29
2023-02-04T18:46:28.373Z,2.08
2023-02-04T18:49:01.121Z,2.23
2023-02-04T18:51:34.384Z,2.23
2023-02-04T18:54:37.308Z,2.33
2023-02-04T18:57:28.813Z,2.17
2023-02-04T19:00:27.751Z,2.49
2023-02-04T19:02:58.247Z,2.29
2023-02-04T19:05:35.507Z,2.28
2023-02-04T19:08:05.235Z,2.42
2023-02-04T19:10:40.734Z,2.19
2023-02-04T19:13:17.425Z,2.02
2023-02-04T19:15:45.417Z,2.25
2023-02-04T19:18:24.836Z,2.55
2023-02-04T19:20:52.489Z,2.31
2023-02-04T19:23:22.569Z,2.45
2023-02-04T19:25:52.277Z,2.39
2023-02-04T19:28:37.302Z,2.28
2023-02-04T19:31:08.230Z,2.22
2023-02-04T19:33:42.635Z,2.42
2023-02-04T19:36:27.716Z,2.64
2023-02-04T19:39:39.902Z,2.63
2023-02-04T19:42:23.425Z,2.46
2023-02-04T19:44:51.742Z,2.26
2023-02-04T19:47:26.076Z,2.12
2023-02-04T19:50:26.920Z,2.11
2023-02-04T19:52:59.856Z,2.05
2023-02-04T19:55:36.320Z,2.36
2023-02-04T19:58:36.608Z,2.14
2023-02-04T20:01:06.152Z,2.15
2023-02-04T20:03:41.821Z,2.33
2023-02-04T20:06:30.326Z,2.24
2023-02-04T20:09:00.147Z,1.86
2023-02-04T20:11:33.284Z,1.96
2023-02-04T20:14:13.917Z,2.08
2023-02-04T20:16:46.976Z,1.97
2023-02-04T20:19:17.676Z,1.87
2023-02-04T20:21:59.318Z,2.13
2023-02-04T20:24:34.752Z,2.12
2023-02-04T20:27:13.734Z,1.82
2023-02-04T20:29:40.592Z,1.99
2023-02-04T20:32:27.099Z,2.07
2023-02-04T20:35:12.659Z,1.78
2023-02-04T20:37:43.924Z,1.87
2023-02-04T20:40:16.875Z,2.08
2023-02-04T20:42:48.094Z,2.04
2023-02-04T20:45:23.384Z,1.97
2023-02-04T20:47:51.756Z,2.42
2023-02-04T20:50:41.372Z,2.24
2023-02-04T20:53:20.615Z,1.79
2023-02-04T20:55:53.402Z,2.03
2023-02-04T20:58:27.527Z,2.45
2023-02-04T21:00:56.133Z,2.63
2023-02-04T21:03:26.288Z,2.13
2023-02-04T21:05:55.013Z,2.44
2023-02-04T21:08:35.641Z,2.76
2023-02-04T21:11:03.006Z,3.03
2023-02-04T21:13:30.568Z,3.00
2023-02-04T21:15:58.025Z,2.79
2023-02-04T21:18:25.281Z,2.67
2023-02-04T21:20:52.325Z,2.69
2023-02-04T21:23:19.906Z,2.43
2023-02-04T21:25:47.061Z,2.49
2023-02-04T21:28:14.510Z,2.59
2023-02-04T21:30:41.534Z,2.47
2023-02-04T21:33:10.337Z,2.45
2023-02-04T21:35:38.350Z,2.48
2023-02-04T21:38:05.923Z,2.51
2023-02-04T21:40:34.637Z,2.41
2023-02-04T21:43:03.096Z,2.18
2023-02-04T21:45:30.105Z,1.97
2023-02-04T21:47:57.097Z,1.87
2023-02-04T21:50:24.150Z,1.68
2023-02-04T21:52:51.464Z,1.76
2023-02-04T21:55:21.563Z,1.82
2023-02-04T21:57:50.000Z,1.88
2023-02-04T22:00:18.910Z,1.74
2023-02-04T22:02:46.242Z,1.66
2023-02-04T22:05:13.170Z,1.90
2023-02-04T22:07:40.670Z,2.01
2023-02-04T22:10:10.995Z,1.82
2023-02-04T22:12:37.969Z,1.75
2023-02-04T22:15:06.246Z,1.91
2023-02-04T22:17:33.683Z,1.71
2023-02-04T22:20:00.688Z,1.57
2023-02-04T22:22:27.826Z,1.68
2023-02-04T22:24:54.730Z,1.72
2023-02-04T22:27:21.800Z,1.44
2023-02-04T22:29:48.675Z,1.60
2023-02-04T22:32:15.603Z,1.54
2023-02-04T22:34:42.440Z,1.55
2023-02-04T22:37:09.418Z,1.38
2023-02-04T22:39:36.416Z,1.69
2023-02-04T22:42:03.662Z,1.58
2023-02-04T22:44:30.552Z,1.42
2023-02-04T22:46:57.432Z,1.49
2023-02-04T22:49:24.352Z,1.35
2023-02-04T22:51:51.245Z,1.50
2023-02-04T22:54:18.283Z,1.27
2023-02-04T22:56:45.232Z,1.18
2023-02-04T22:59:12.237Z,1.23
2023-02-04T23:01:39.192Z,1.27
2023-02-04T23:04:06.128Z,1.36
2023-02-04T23:06:33.576Z,1.40
2023-02-04T23:09:00.530Z,1.26
2023-02-04T23:11:27.441Z,1.07
2023-02-04T23:13:54.396Z,1.14
2023-02-04T23:16:21.440Z,1.07
2023-02-04T23:18:48.354Z,1.03
2023-02-04T23:21:15.195Z,1.10
2023-02-04T23:23:42.591Z,0.89
2023-02-04T23:26:09.728Z,0.85
2023-02-04T23:28:36.613Z,0.90
2023-02-04T23:31:03.583Z,0.99
2023-02-04T23:33:30.576Z,0.99
2023-02-04T23:35:57.698Z,1.19
2023-02-04T23:38:24.944Z,1.15
2023-02-04T23:40:52.065Z,1.00
2023-02-04T23:43:19.222Z,0.92
2023-02-04T23:45:46.227Z,0.80
2023-02-04T23:48:13.317Z,0.80
2023-02-04T23:50:40.329Z,0.80
2023-02-04T23:53:07.189Z,0.84
2023-02-04T23:55:34.720Z,0.75
2023-02-04T23:58:01.806Z,0.76
